createdAt,value
2022-08-23T00:02:56.642Z,16.40
2022-08-23T00:08:01.592Z,16.40
2022-08-23T00:13:05.107Z,16.30
2022-08-23T00:18:08.882Z,16.20
2022-08-23T00:23:13.594Z,16.20
2022-08-23T00:28:16.923Z,16.20
2022-08-23T00:33:21.322Z,16.20
2022-08-23T00:38:33.800Z,16.10
2022-08-23T00:44:00.154Z,16.10
2022-08-23T00:49:08.165Z,16.10
2022-08-23T00:54:14.178Z,16.10
2022-08-23T00:59:17.593Z,16.00
2022-08-23T01:04:21.208Z,16.00
2022-08-23T01:09:26.251Z,16.00
2022-08-23T01:14:37.592Z,16.00
2022-08-23T01:19:45.430Z,15.90
2022-08-23T01:25:06.378Z,15.90
2022-08-23T01:30:18.546Z,15.90
2022-08-23T01:40:38.389Z,15.90
2022-08-23T01:45:44.013Z,15.90
2022-08-23T01:50:49.035Z,15.90
2022-08-23T01:55:54.277Z,15.80
2022-08-23T02:00:58.030Z,15.80
2022-08-23T02:06:02.171Z,15.70
2022-08-23T02:11:12.738Z,15.60
2022-08-23T02:16:23.862Z,15.50
2022-08-23T02:21:31.432Z,15.50
2022-08-23T02:26:36.770Z,15.40
2022-08-23T02:31:40.824Z,15.30
2022-08-23T02:36:45.810Z,15.20
2022-08-23T02:41:52.096Z,15.20
2022-08-23T02:46:56.471Z,15.10
2022-08-23T02:51:59.955Z,15.00
2022-08-23T02:57:05.409Z,14.90
2022-08-23T03:02:09.479Z,15.50
2022-08-23T03:07:17.937Z,14.80
2022-08-23T03:12:22.919Z,14.60
2022-08-23T03:17:30.156Z,14.60
2022-08-23T03:22:33.616Z,14.40
2022-08-23T03:27:44.885Z,14.30
2022-08-23T03:32:50.322Z,14.20
2022-08-23T03:37:55.429Z,14.20
2022-08-23T03:43:01.412Z,14.20
2022-08-23T03:48:06.720Z,14.20
2022-08-23T03:53:12.118Z,14.00
2022-08-23T03:58:19.458Z,14.00
2022-08-23T04:03:22.999Z,13.90
2022-08-23T04:08:37.844Z,13.90
2022-08-23T04:13:43.738Z,13.80
2022-08-23T04:18:48.631Z,13.80
2022-08-23T04:23:54.677Z,13.80
2022-08-23T04:28:59.594Z,13.70
2022-08-23T04:34:03.940Z,13.70
2022-08-23T04:39:09.164Z,17.20
2022-08-23T04:44:15.625Z,13.60
2022-08-23T04:49:23.014Z,13.40
2022-08-23T04:54:28.995Z,13.50
2022-08-23T04:59:57.606Z,13.50
2022-08-23T05:05:01.306Z,13.70
2022-08-23T05:10:05.900Z,13.90
2022-08-23T05:15:12.467Z,13.80
2022-08-23T05:20:21.517Z,14.10
2022-08-23T05:25:24.687Z,14.30
2022-08-23T05:30:31.376Z,14.30
2022-08-23T05:35:35.353Z,14.70
2022-08-23T05:40:38.683Z,14.90
2022-08-23T05:45:48.204Z,15.00
2022-08-23T05:50:51.658Z,15.10
2022-08-23T05:55:55.336Z,15.00
2022-08-23T06:01:02.909Z,17.90
2022-08-23T06:06:08.453Z,14.80
2022-08-23T06:11:14.690Z,15.50
2022-08-23T06:16:24.020Z,15.50
2022-08-23T06:21:27.992Z,15.70
2022-08-23T06:26:34.937Z,15.70
2022-08-23T06:31:47.326Z,16.50
2022-08-23T06:37:04.822Z,17.30
2022-08-23T06:42:42.256Z,17.20
2022-08-23T06:47:47.556Z,18.10
2022-08-23T06:52:53.033Z,17.90
2022-08-23T06:58:13.276Z,18.10
2022-08-23T07:03:36.934Z,18.90
2022-08-23T07:09:00.175Z,19.10
2022-08-23T07:14:05.834Z,18.40
2022-08-23T07:19:10.688Z,18.00
2022-08-23T07:24:14.731Z,17.70
2022-08-23T07:29:19.164Z,17.50
2022-08-23T07:34:25.031Z,18.40
2022-08-23T07:39:29.702Z,17.90
2022-08-23T07:44:34.387Z,18.00
2022-08-23T07:49:39.121Z,17.90
2022-08-23T07:54:48.506Z,18.40
2022-08-23T08:00:22.371Z,19.20
2022-08-23T08:05:41.002Z,20.20
2022-08-23T08:10:44.558Z,22.10
2022-08-23T08:15:48.196Z,23.60
2022-08-23T08:20:54.225Z,23.40
2022-08-23T08:26:16.323Z,21.70
2022-08-23T08:31:28.980Z,23.10
2022-08-23T08:36:37.920Z,25.30
2022-08-23T08:42:04.191Z,24.10
2022-08-23T08:47:31.561Z,22.40
2022-08-23T08:52:40.154Z,22.70
2022-08-23T08:57:55.011Z,22.50
2022-08-23T09:03:00.875Z,22.80
2022-08-23T09:08:21.122Z,24.00
2022-08-23T09:13:55.931Z,24.70
2022-08-23T09:19:02.319Z,23.40
2022-08-23T09:24:07.416Z,24.60
2022-08-23T09:29:33.402Z,24.50
2022-08-23T09:34:43.599Z,24.60
2022-08-23T09:39:52.993Z,25.30
2022-08-23T09:45:02.348Z,26.80
2022-08-23T09:50:24.358Z,27.40
2022-08-23T09:55:33.904Z,27.20
2022-08-23T10:00:39.081Z,29.60
2022-08-23T10:05:44.718Z,27.80
2022-08-23T10:10:57.916Z,26.20
2022-08-23T10:16:22.808Z,28.60
2022-08-23T10:21:40.477Z,29.30
2022-08-23T10:27:00.541Z,27.70
2022-08-23T10:32:17.052Z,29.40
2022-08-23T10:37:43.776Z,30.20
2022-08-23T10:43:02.483Z,30.70
2022-08-23T10:48:22.055Z,30.30
2022-08-23T10:53:35.287Z,31.50
2022-08-23T10:58:47.524Z,30.60
2022-08-23T11:04:03.314Z,32.20
2022-08-23T11:09:54.883Z,32.20
2022-08-23T11:15:26.236Z,30.60
2022-08-23T11:20:59.904Z,30.20
2022-08-23T11:27:06.948Z,32.20
2022-08-23T11:32:41.603Z,31.00
2022-08-23T11:37:57.215Z,28.40
2022-08-23T11:43:20.415Z,28.20
2022-08-23T11:48:43.431Z,32.40
2022-08-23T11:54:24.114Z,34.20
2022-08-23T11:59:53.461Z,34.30
2022-08-23T12:05:00.865Z,34.90
2022-08-23T12:10:05.068Z,36.10
2022-08-23T12:15:11.999Z,34.80
2022-08-23T12:20:30.038Z,35.50
2022-08-23T12:25:33.767Z,35.10
2022-08-23T12:30:47.896Z,32.80
2022-08-23T12:35:59.692Z,31.10
2022-08-23T12:41:20.104Z,31.90
2022-08-23T12:46:36.271Z,34.60
2022-08-23T12:51:50.906Z,36.70
2022-08-23T12:56:55.951Z,33.00
2022-08-23T13:02:00.879Z,34.90
2022-08-23T13:07:09.282Z,35.90
2022-08-23T13:12:13.191Z,35.50
2022-08-23T13:17:23.498Z,37.30
2022-08-23T13:22:29.728Z,39.00
2022-08-23T13:27:38.163Z,36.30
2022-08-23T13:32:44.252Z,38.80
2022-08-23T13:37:49.544Z,38.20
2022-08-23T13:42:58.525Z,36.10
2022-08-23T13:48:09.165Z,36.30
2022-08-23T13:53:15.581Z,38.20
2022-08-23T13:58:29.591Z,37.10
2022-08-23T14:03:33.244Z,36.00
2022-08-23T14:08:37.990Z,37.40
2022-08-23T14:13:41.687Z,37.00
2022-08-23T14:24:10.481Z,34.80
2022-08-23T14:29:15.355Z,36.20
2022-08-23T14:34:18.985Z,38.10
2022-08-23T14:39:24.059Z,35.10
2022-08-23T14:44:33.206Z,36.40
2022-08-23T14:49:39.257Z,38.60
2022-08-23T14:54:44.185Z,38.40
2022-08-23T14:59:47.552Z,37.80
2022-08-23T15:04:50.910Z,37.10
2022-08-23T15:09:56.016Z,37.30
2022-08-23T15:14:59.402Z,39.00
2022-08-23T15:20:03.603Z,39.40
2022-08-23T15:25:09.418Z,39.90
2022-08-23T15:30:15.272Z,40.20
2022-08-23T15:35:18.748Z,39.70
2022-08-23T15:40:25.696Z,39.80
2022-08-23T15:45:29.296Z,36.90
2022-08-23T15:50:35.357Z,39.00
2022-08-23T15:55:41.702Z,39.40
2022-08-23T16:00:45.669Z,36.30
2022-08-23T16:05:51.229Z,38.00
2022-08-23T16:10:56.699Z,37.80
2022-08-23T16:16:00.138Z,38.20
2022-08-23T16:21:03.721Z,37.90
2022-08-23T16:26:11.923Z,37.50
2022-08-23T16:31:19.978Z,36.90
2022-08-23T16:36:28.431Z,36.30
2022-08-23T16:41:35.115Z,36.20
2022-08-23T16:46:41.198Z,36.30
2022-08-23T16:51:44.751Z,34.80
2022-08-23T16:56:49.487Z,32.20
2022-08-23T17:01:56.175Z,30.40
2022-08-23T17:07:00.789Z,25.80
2022-08-23T17:12:06.984Z,28.20
2022-08-23T17:17:10.618Z,27.30
2022-08-23T17:22:14.532Z,26.80
2022-08-23T17:27:19.755Z,26.50
2022-08-23T17:32:23.271Z,26.20
2022-08-23T17:37:27.153Z,25.90
2022-08-23T17:42:32.196Z,25.60
2022-08-23T17:47:35.532Z,25.40
2022-08-23T17:52:39.493Z,25.30
2022-08-23T17:57:44.288Z,25.00
2022-08-23T18:02:47.642Z,24.90
2022-08-23T18:07:50.991Z,24.70
2022-08-23T18:12:57.353Z,20.00
2022-08-23T18:18:01.913Z,24.30
2022-08-23T18:23:06.018Z,24.00
2022-08-23T18:28:12.960Z,23.80
2022-08-23T18:33:18.340Z,23.70
2022-08-23T18:38:21.735Z,23.60
2022-08-23T18:43:37.245Z,23.50
2022-08-23T18:48:41.321Z,23.40
2022-08-23T18:53:45.230Z,23.20
2022-08-23T18:58:49.953Z,23.10
2022-08-23T19:03:53.655Z,23.00
2022-08-23T19:08:57.248Z,22.90
2022-08-23T19:14:02.907Z,22.50
2022-08-23T19:19:10.573Z,22.40
2022-08-23T19:24:14.356Z,25.30
2022-08-23T19:29:20.693Z,22.30
2022-08-23T19:34:24.066Z,22.20
2022-08-23T19:39:27.642Z,25.00
2022-08-23T19:44:34.880Z,22.10
2022-08-23T19:49:38.298Z,24.10
2022-08-23T19:54:41.881Z,21.70
2022-08-23T19:59:47.267Z,21.40
2022-08-23T20:04:51.857Z,21.50
2022-08-23T20:09:55.261Z,21.20
2022-08-23T20:15:00.262Z,21.00
2022-08-23T20:20:05.143Z,20.70
2022-08-23T20:25:10.367Z,20.80
2022-08-23T20:30:15.866Z,20.80
2022-08-23T20:35:19.271Z,20.90
2022-08-23T20:40:25.926Z,20.80
2022-08-23T20:45:30.821Z,20.70
2022-08-23T20:50:34.245Z,20.70
2022-08-23T20:55:39.102Z,20.50
2022-08-23T21:00:43.991Z,20.30
2022-08-23T21:05:47.917Z,20.20
2022-08-23T21:10:52.741Z,20.10
2022-08-23T21:15:57.553Z,20.00
2022-08-23T21:21:00.923Z,17.50
2022-08-23T21:26:04.657Z,19.80
2022-08-23T21:31:12.514Z,19.80
2022-08-23T21:36:17.245Z,19.70
2022-08-23T21:41:35.080Z,19.60
2022-08-23T21:46:39.874Z,19.40
2022-08-23T21:51:44.479Z,19.30
2022-08-23T21:56:48.577Z,18.80
2022-08-23T22:01:53.603Z,18.70
2022-08-23T22:06:59.901Z,18.80
2022-08-23T22:12:04.967Z,18.90
2022-08-23T22:17:11.296Z,18.90
2022-08-23T22:22:15.101Z,18.70
2022-08-23T22:27:18.830Z,18.60
2022-08-23T22:32:24.152Z,18.50
2022-08-23T22:37:27.856Z,18.40
2022-08-23T22:42:33.674Z,18.50
2022-08-23T22:47:40.789Z,18.40
2022-08-23T22:52:44.100Z,18.40
2022-08-23T22:57:47.556Z,18.30
2022-08-23T23:02:52.332Z,18.40
2022-08-23T23:08:13.038Z,18.40
2022-08-23T23:13:16.415Z,18.10
2022-08-23T23:18:21.801Z,17.80
2022-08-23T23:23:25.268Z,17.50
2022-08-23T23:28:29.238Z,17.50
2022-08-23T23:33:34.913Z,17.50
2022-08-23T23:38:38.674Z,17.50
2022-08-23T23:43:42.730Z,18.60
2022-08-23T23:48:49.736Z,17.30
2022-08-23T23:53:54.025Z,21.00
2022-08-23T23:59:00.070Z,16.90
